createdAt,value
2018-11-07T00:00:30.991Z,14.25
2018-11-07T00:01:35.145Z,14.24
2018-11-07T00:02:39.315Z,14.23
2018-11-07T00:03:43.398Z,14.23
2018-11-07T00:04:47.607Z,14.22
2018-11-07T00:05:51.849Z,14.22
2018-11-07T00:06:55.907Z,14.22
2018-11-07T00:08:00.174Z,14.20
2018-11-07T00:09:05.295Z,14.19
2018-11-07T00:10:09.789Z,14.20
2018-11-07T00:11:13.940Z,14.20
2018-11-07T00:12:18.078Z,14.19
2018-11-07T00:13:22.216Z,14.19
2018-11-07T00:14:26.424Z,14.18
2018-11-07T00:15:31.102Z,14.17
2018-11-07T00:16:35.324Z,14.17
2018-11-07T00:17:39.493Z,14.17
2018-11-07T00:18:46.915Z,14.16
2018-11-07T00:19:51.042Z,14.15
2018-11-07T00:20:55.353Z,14.15
2018-11-07T00:21:59.458Z,14.14
2018-11-07T00:23:03.626Z,14.13
2018-11-07T00:24:07.862Z,14.13
2018-11-07T00:25:12.617Z,14.13
2018-11-07T00:26:17.217Z,14.13
2018-11-07T00:27:21.540Z,14.12
2018-11-07T00:28:25.723Z,14.12
2018-11-07T00:29:29.885Z,14.12
2018-11-07T00:30:34.028Z,14.12
2018-11-07T00:31:38.134Z,14.12
2018-11-07T00:32:42.280Z,14.12
2018-11-07T00:43:52.617Z,14.03
2018-11-07T00:44:57.037Z,14.03
2018-11-07T00:46:01.145Z,14.06
2018-11-07T00:47:05.313Z,14.08
2018-11-07T00:48:09.501Z,14.10
2018-11-07T00:49:14.498Z,14.14
2018-11-07T00:50:19.531Z,14.16
2018-11-07T00:51:23.901Z,14.19
2018-11-07T00:52:28.158Z,14.22
2018-11-07T00:53:32.373Z,14.25
2018-11-07T00:54:36.937Z,14.27
2018-11-07T00:55:41.092Z,14.29
2018-11-07T00:56:45.426Z,14.32
2018-11-07T00:57:49.593Z,14.35
2018-11-07T00:58:54.119Z,14.37
2018-11-07T00:59:58.395Z,14.39
2018-11-07T01:01:02.720Z,14.41
2018-11-07T01:02:07.453Z,14.42
2018-11-07T01:03:11.677Z,14.44
2018-11-07T01:04:15.862Z,14.47
2018-11-07T01:05:20.241Z,14.48
2018-11-07T01:07:34.664Z,14.50
2018-11-07T01:08:39.512Z,14.50
2018-11-07T01:09:43.910Z,14.51
2018-11-07T01:10:47.945Z,14.53
2018-11-07T01:11:52.149Z,14.55
2018-11-07T01:12:56.507Z,14.56
2018-11-07T01:14:00.795Z,14.58
2018-11-07T01:15:05.416Z,14.58
2018-11-07T01:16:09.580Z,14.59
2018-11-07T01:17:13.796Z,14.59
2018-11-07T01:18:17.962Z,14.60
2018-11-07T01:19:22.838Z,14.60
2018-11-07T01:20:27.061Z,14.60
2018-11-07T01:21:31.233Z,14.61
2018-11-07T01:22:35.463Z,14.63
2018-11-07T01:23:39.757Z,14.62
2018-11-07T01:24:43.928Z,14.63
2018-11-07T01:25:48.041Z,14.64
2018-11-07T01:26:52.288Z,14.65
2018-11-07T01:27:56.461Z,14.64
2018-11-07T01:29:00.687Z,14.65
2018-11-07T01:30:06.149Z,14.66
2018-11-07T01:31:10.421Z,14.66
2018-11-07T01:32:14.895Z,14.65
2018-11-07T01:33:19.233Z,14.66
2018-11-07T01:34:23.530Z,14.67
2018-11-07T01:35:27.711Z,14.66
2018-11-07T01:36:32.077Z,14.66
2018-11-07T01:37:36.232Z,14.66
2018-11-07T01:38:40.531Z,14.65
2018-11-07T01:39:44.765Z,14.65
2018-11-07T01:40:50.164Z,14.63
2018-11-07T01:41:56.708Z,14.60
2018-11-07T01:43:00.862Z,14.59
2018-11-07T01:44:05.188Z,14.57
2018-11-07T01:45:10.621Z,14.53
2018-11-07T01:46:14.808Z,14.51
2018-11-07T01:47:19.072Z,14.48
2018-11-07T01:48:23.217Z,14.46
2018-11-07T01:49:27.497Z,14.43
2018-11-07T01:50:31.562Z,14.40
2018-11-07T01:51:35.705Z,14.37
2018-11-07T01:52:39.948Z,14.35
2018-11-07T01:53:46.322Z,14.32
2018-11-07T01:54:50.471Z,14.31
2018-11-07T01:55:54.635Z,14.27
2018-11-07T01:56:58.785Z,14.26
2018-11-07T01:58:02.900Z,14.25
2018-11-07T01:59:07.237Z,14.23
2018-11-07T02:00:12.433Z,14.22
2018-11-07T02:01:16.547Z,14.22
2018-11-07T02:02:20.785Z,14.21
2018-11-07T02:03:24.911Z,14.20
2018-11-07T02:04:29.212Z,14.19
2018-11-07T02:05:33.355Z,14.18
2018-11-07T02:06:37.553Z,14.16
2018-11-07T02:07:42.167Z,14.16
2018-11-07T02:08:48.508Z,14.16
2018-11-07T02:09:52.645Z,14.15
2018-11-07T02:11:03.172Z,14.14
2018-11-07T02:12:07.427Z,14.12
2018-11-07T02:13:11.589Z,14.09
2018-11-07T02:14:15.687Z,14.09
2018-11-07T02:15:19.814Z,14.06
2018-11-07T02:16:23.960Z,14.05
2018-11-07T02:17:28.499Z,14.04
2018-11-07T02:18:32.621Z,14.03
2018-11-07T02:19:37.065Z,14.02
2018-11-07T02:20:41.228Z,14.01
2018-11-07T02:21:45.355Z,14.00
2018-11-07T02:22:49.480Z,13.98
2018-11-07T02:23:53.618Z,13.96
2018-11-07T02:24:57.830Z,13.96
2018-11-07T02:26:02.129Z,13.94
2018-11-07T02:27:06.352Z,13.92
2018-11-07T02:28:10.453Z,13.91
2018-11-07T02:29:15.479Z,13.90
2018-11-07T02:30:19.564Z,13.87
2018-11-07T02:31:23.698Z,13.86
2018-11-07T02:32:29.091Z,13.84
2018-11-07T02:33:33.204Z,13.82
2018-11-07T02:34:37.492Z,13.82
2018-11-07T02:35:41.677Z,13.79
2018-11-07T02:36:45.864Z,13.77
2018-11-07T02:37:49.931Z,13.76
2018-11-07T02:38:53.999Z,13.75
2018-11-07T02:39:58.268Z,13.72
2018-11-07T02:41:02.419Z,13.72
2018-11-07T02:42:06.643Z,13.72
2018-11-07T02:43:10.694Z,13.70
2018-11-07T02:44:14.821Z,13.69
2018-11-07T02:45:19.059Z,13.67
2018-11-07T02:46:23.188Z,13.66
2018-11-07T02:47:27.313Z,13.66
2018-11-07T02:48:31.531Z,13.64
2018-11-07T02:49:35.705Z,13.63
2018-11-07T02:50:39.842Z,13.62
2018-11-07T02:51:44.056Z,13.61
2018-11-07T02:52:48.337Z,13.59
2018-11-07T02:53:52.448Z,13.59
2018-11-07T02:54:56.548Z,13.59
2018-11-07T02:56:00.706Z,13.58
2018-11-07T02:57:05.141Z,13.57
2018-11-07T02:58:09.400Z,13.55
2018-11-07T02:59:13.557Z,13.55
2018-11-07T03:00:17.650Z,13.53
2018-11-07T03:01:21.866Z,13.52
2018-11-07T03:02:26.088Z,13.52
2018-11-07T03:03:30.314Z,13.51
2018-11-07T03:04:34.432Z,13.52
2018-11-07T03:05:38.645Z,13.50
2018-11-07T03:06:42.780Z,13.50
2018-11-07T03:07:46.953Z,13.50
2018-11-07T03:08:51.106Z,13.49
2018-11-07T03:09:55.251Z,13.48
2018-11-07T03:11:00.334Z,13.48
2018-11-07T03:12:05.136Z,13.48
2018-11-07T03:13:09.347Z,13.47
2018-11-07T03:14:13.594Z,13.46
2018-11-07T03:15:17.688Z,13.46
2018-11-07T03:16:21.837Z,13.45
2018-11-07T03:17:25.871Z,13.46
2018-11-07T03:18:29.982Z,13.44
2018-11-07T03:19:34.144Z,13.45
2018-11-07T03:20:38.245Z,13.42
2018-11-07T03:21:42.545Z,13.42
2018-11-07T03:22:46.711Z,13.41
2018-11-07T03:23:50.835Z,13.42
2018-11-07T03:24:55.076Z,13.41
2018-11-07T03:25:59.213Z,13.41
2018-11-07T03:27:03.323Z,13.40
2018-11-07T03:28:07.484Z,13.38
2018-11-07T03:29:11.620Z,13.38
2018-11-07T03:30:15.730Z,13.37
2018-11-07T03:31:19.891Z,13.36
2018-11-07T03:32:24.038Z,13.36
2018-11-07T03:33:28.241Z,13.35
2018-11-07T03:34:32.435Z,13.34
2018-11-07T03:35:36.505Z,13.33
2018-11-07T03:36:40.651Z,13.32
2018-11-07T03:37:44.868Z,13.33
2018-11-07T03:38:49.269Z,13.32
2018-11-07T03:39:53.519Z,13.33
2018-11-07T03:40:57.751Z,13.33
2018-11-07T03:42:01.886Z,13.32
2018-11-07T03:43:06.505Z,13.32
2018-11-07T03:44:11.510Z,13.32
2018-11-07T03:45:15.787Z,13.32
2018-11-07T03:46:20.699Z,13.32
2018-11-07T03:47:24.756Z,13.32
2018-11-07T03:48:31.050Z,13.33
2018-11-07T03:49:35.317Z,13.34
2018-11-07T03:50:39.490Z,13.36
2018-11-07T03:51:44.971Z,13.38
2018-11-07T03:52:49.088Z,13.39
2018-11-07T03:53:53.415Z,13.40
2018-11-07T03:54:57.555Z,13.43
2018-11-07T03:56:01.721Z,13.43
2018-11-07T03:57:05.925Z,13.42
2018-11-07T03:58:10.220Z,13.39
2018-11-07T03:59:14.287Z,13.42
2018-11-07T04:00:18.367Z,13.41
2018-11-07T04:01:22.414Z,13.40
2018-11-07T04:02:26.545Z,13.38
2018-11-07T04:03:30.647Z,13.38
2018-11-07T04:04:34.802Z,13.38
2018-11-07T04:05:38.888Z,13.36
2018-11-07T04:06:43.139Z,13.36
2018-11-07T04:07:47.793Z,13.35
2018-11-07T04:08:52.092Z,13.35
2018-11-07T04:09:56.344Z,13.34
2018-11-07T04:11:00.446Z,13.34
2018-11-07T04:12:04.581Z,13.33
2018-11-07T04:13:08.704Z,13.31
2018-11-07T04:14:12.903Z,13.31
2018-11-07T04:15:17.287Z,13.31
2018-11-07T04:16:21.533Z,13.30
2018-11-07T04:17:25.842Z,13.29
2018-11-07T04:18:29.977Z,13.29
2018-11-07T04:19:34.078Z,13.28
2018-11-07T04:20:38.478Z,13.27
2018-11-07T04:21:42.623Z,13.27
2018-11-07T04:22:46.785Z,13.26
2018-11-07T04:24:01.072Z,13.26
2018-11-07T04:25:05.617Z,13.25
2018-11-07T04:26:09.643Z,13.25
2018-11-07T04:27:13.797Z,13.24
2018-11-07T04:28:17.991Z,13.25
2018-11-07T04:29:22.161Z,13.23
2018-11-07T04:30:26.391Z,13.25
2018-11-07T04:31:31.088Z,13.23
2018-11-07T04:32:35.159Z,13.15
2018-11-07T04:33:39.293Z,13.22
2018-11-07T04:34:43.442Z,13.21
2018-11-07T04:35:47.695Z,13.20
2018-11-07T04:36:51.824Z,13.19
2018-11-07T04:37:56.029Z,13.20
2018-11-07T04:39:00.187Z,13.18
2018-11-07T04:40:04.487Z,13.17
2018-11-07T04:41:08.644Z,13.15
2018-11-07T04:42:12.729Z,13.15
2018-11-07T04:43:16.890Z,13.14
2018-11-07T04:44:21.005Z,13.11
2018-11-07T04:45:25.370Z,13.09
2018-11-07T04:46:29.567Z,13.06
2018-11-07T04:47:33.720Z,13.08
2018-11-07T04:48:37.931Z,13.04
2018-11-07T04:49:42.014Z,13.03
2018-11-07T04:50:46.122Z,13.02
2018-11-07T04:51:50.270Z,13.02
2018-11-07T04:52:54.372Z,13.00
2018-11-07T04:53:58.441Z,12.98
2018-11-07T04:55:02.528Z,12.97
2018-11-07T04:56:06.876Z,12.97
2018-11-07T04:57:11.425Z,12.95
2018-11-07T04:58:15.635Z,12.95
2018-11-07T04:59:19.831Z,12.93
2018-11-07T05:00:24.019Z,12.92
2018-11-07T05:01:28.417Z,12.91
2018-11-07T05:02:32.490Z,12.91
2018-11-07T05:03:36.792Z,12.89
2018-11-07T05:04:40.940Z,12.88
2018-11-07T05:05:45.124Z,12.88
2018-11-07T05:06:49.247Z,12.86
2018-11-07T05:07:53.460Z,12.85
2018-11-07T05:08:57.632Z,12.85
2018-11-07T05:10:01.671Z,12.85
2018-11-07T05:11:05.876Z,12.84
2018-11-07T05:12:10.090Z,12.84
2018-11-07T05:13:14.221Z,12.82
2018-11-07T05:14:18.298Z,12.82
2018-11-07T05:15:22.501Z,12.81
2018-11-07T05:16:26.606Z,12.81
2018-11-07T05:17:30.743Z,12.81
2018-11-07T05:18:35.179Z,12.80
2018-11-07T05:19:39.376Z,12.80
2018-11-07T05:20:43.523Z,12.80
2018-11-07T05:21:47.737Z,12.80
2018-11-07T05:22:51.909Z,12.80
2018-11-07T05:23:55.965Z,12.79
2018-11-07T05:25:00.200Z,12.78
2018-11-07T05:26:04.612Z,12.77
2018-11-07T05:27:08.723Z,12.76
2018-11-07T05:28:12.856Z,12.76
2018-11-07T05:29:16.944Z,12.76
2018-11-07T05:30:21.106Z,12.76
2018-11-07T05:31:25.524Z,12.76
2018-11-07T05:32:29.625Z,12.76
2018-11-07T05:33:34.035Z,12.75
2018-11-07T05:34:38.618Z,12.76
2018-11-07T05:35:42.783Z,12.75
2018-11-07T05:36:46.985Z,12.74
2018-11-07T05:37:51.131Z,12.69
2018-11-07T05:38:55.399Z,12.72
2018-11-07T05:39:59.438Z,12.72
2018-11-07T05:41:03.623Z,12.71
2018-11-07T05:42:07.635Z,12.70
2018-11-07T05:43:11.805Z,12.70
2018-11-07T05:44:15.966Z,12.69
2018-11-07T05:45:20.197Z,12.70
2018-11-07T05:46:24.319Z,12.69
2018-11-07T05:47:29.536Z,12.69
2018-11-07T05:48:33.712Z,12.66
2018-11-07T05:49:37.873Z,12.67
2018-11-07T05:50:42.093Z,12.65
2018-11-07T05:51:46.363Z,12.65
2018-11-07T05:52:50.669Z,12.64
2018-11-07T05:53:54.882Z,12.63
2018-11-07T05:54:59.167Z,12.58
2018-11-07T05:56:03.344Z,12.63
2018-11-07T05:57:07.604Z,12.62
2018-11-07T05:58:11.812Z,12.61
2018-11-07T05:59:15.973Z,12.62
2018-11-07T06:00:20.198Z,12.56
2018-11-07T06:01:24.262Z,12.60
2018-11-07T06:02:28.533Z,12.60
2018-11-07T06:03:32.765Z,12.59
2018-11-07T06:04:36.870Z,12.58
2018-11-07T06:05:41.208Z,12.57
2018-11-07T06:06:45.644Z,12.57
2018-11-07T06:07:49.781Z,12.51
2018-11-07T06:08:54.029Z,12.54
2018-11-07T06:09:58.210Z,12.54
2018-11-07T06:11:02.544Z,12.54
2018-11-07T06:12:06.708Z,12.53
2018-11-07T06:13:11.107Z,12.52
2018-11-07T06:14:15.351Z,12.53
2018-11-07T06:15:19.497Z,12.52
2018-11-07T06:16:23.890Z,12.51
2018-11-07T06:17:27.966Z,12.51
2018-11-07T06:18:32.147Z,12.50
2018-11-07T06:19:36.937Z,12.50
2018-11-07T06:20:41.185Z,12.49
2018-11-07T06:21:46.213Z,12.48
2018-11-07T06:22:50.454Z,12.49
2018-11-07T06:23:54.651Z,12.49
2018-11-07T06:26:15.632Z,12.48
2018-11-07T06:27:20.027Z,12.47
2018-11-07T06:28:24.217Z,12.47
2018-11-07T06:29:28.468Z,12.47
2018-11-07T06:30:32.624Z,12.46
2018-11-07T06:31:36.923Z,12.45
2018-11-07T06:32:41.687Z,12.45
2018-11-07T06:33:45.786Z,12.45
2018-11-07T06:34:49.983Z,12.46
2018-11-07T06:35:54.504Z,12.45
2018-11-07T06:36:58.866Z,12.39
2018-11-07T06:38:03.172Z,12.46
2018-11-07T06:39:09.043Z,12.44
2018-11-07T06:40:13.179Z,12.43
2018-11-07T06:41:17.526Z,12.44
2018-11-07T06:42:21.982Z,12.43
2018-11-07T06:43:26.432Z,12.42
2018-11-07T06:44:30.730Z,12.43
2018-11-07T06:45:34.815Z,12.42
2018-11-07T06:46:39.229Z,12.42
2018-11-07T06:47:43.516Z,12.42
2018-11-07T06:48:47.962Z,12.41
2018-11-07T06:49:52.248Z,12.41
2018-11-07T06:50:56.366Z,12.43
2018-11-07T06:52:00.543Z,12.41
2018-11-07T06:53:05.492Z,12.40
2018-11-07T06:54:10.033Z,12.42
2018-11-07T06:55:14.545Z,12.41
2018-11-07T06:56:18.790Z,12.41
2018-11-07T06:57:22.979Z,12.41
2018-11-07T06:58:27.273Z,12.40
2018-11-07T06:59:32.079Z,12.41
2018-11-07T07:00:36.500Z,12.40
2018-11-07T07:01:40.793Z,12.40
2018-11-07T07:02:46.037Z,12.41
2018-11-07T07:03:50.293Z,12.41
2018-11-07T07:04:54.505Z,12.42
2018-11-07T07:05:58.706Z,12.41
2018-11-07T07:07:02.850Z,12.36
2018-11-07T07:08:07.148Z,12.41
2018-11-07T07:09:11.546Z,12.41
2018-11-07T07:10:17.636Z,12.43
2018-11-07T07:11:21.829Z,12.42
2018-11-07T07:12:26.135Z,12.43
2018-11-07T07:13:30.498Z,12.45
2018-11-07T07:14:34.761Z,12.44
2018-11-07T07:15:38.974Z,12.46
2018-11-07T07:16:43.088Z,12.46
2018-11-07T07:17:47.397Z,12.47
2018-11-07T07:18:51.591Z,12.48
2018-11-07T07:19:56.056Z,12.50
2018-11-07T07:21:00.536Z,12.50
2018-11-07T07:22:05.353Z,12.51
2018-11-07T07:23:09.823Z,12.51
2018-11-07T07:24:14.082Z,12.52
2018-11-07T07:25:18.787Z,12.53
2018-11-07T07:26:23.111Z,12.54
2018-11-07T07:27:27.305Z,12.56
2018-11-07T07:28:31.868Z,12.56
2018-11-07T07:29:36.083Z,12.58
2018-11-07T07:30:40.352Z,12.58
2018-11-07T07:31:44.739Z,12.59
2018-11-07T07:32:49.513Z,12.60
2018-11-07T07:33:53.589Z,12.60
2018-11-07T07:34:57.903Z,12.61
2018-11-07T07:36:02.347Z,12.62
2018-11-07T07:37:06.620Z,12.64
2018-11-07T07:38:10.798Z,12.65
2018-11-07T07:39:15.193Z,12.65
2018-11-07T07:40:19.362Z,12.68
2018-11-07T07:41:23.633Z,12.68
2018-11-07T07:42:27.824Z,12.70
2018-11-07T07:43:32.148Z,12.71
2018-11-07T07:44:36.756Z,12.72
2018-11-07T07:45:41.651Z,12.73
2018-11-07T07:46:45.932Z,12.73
2018-11-07T07:47:50.400Z,12.75
2018-11-07T07:48:54.609Z,12.76
2018-11-07T07:49:58.697Z,12.78
2018-11-07T07:51:02.955Z,12.79
2018-11-07T07:52:07.129Z,12.80
2018-11-07T07:53:11.372Z,12.81
2018-11-07T07:54:15.334Z,12.81
2018-11-07T07:55:19.411Z,12.79
2018-11-07T07:56:23.509Z,12.83
2018-11-07T07:57:27.565Z,12.85
2018-11-07T07:58:31.743Z,12.85
2018-11-07T07:59:35.892Z,12.86
2018-11-07T08:00:40.161Z,12.87
2018-11-07T08:01:44.246Z,12.84
2018-11-07T08:02:50.509Z,12.87
2018-11-07T08:03:54.701Z,12.89
2018-11-07T08:04:58.890Z,12.91
2018-11-07T08:06:03.223Z,12.91
2018-11-07T08:07:07.602Z,12.93
2018-11-07T08:08:11.676Z,12.95
2018-11-07T08:09:15.826Z,12.95
2018-11-07T08:10:21.127Z,12.96
2018-11-07T08:11:25.329Z,12.97
2018-11-07T08:12:29.527Z,12.97
2018-11-07T08:13:33.854Z,12.98
2018-11-07T08:14:37.922Z,13.00
2018-11-07T08:15:42.115Z,13.00
2018-11-07T08:16:46.260Z,13.02
2018-11-07T08:17:50.447Z,13.03
2018-11-07T08:18:55.473Z,13.04
2018-11-07T08:19:59.595Z,13.05
2018-11-07T08:21:03.757Z,13.06
2018-11-07T08:22:07.916Z,13.08
2018-11-07T08:23:12.132Z,13.10
2018-11-07T08:24:16.199Z,13.10
2018-11-07T08:25:20.383Z,13.11
2018-11-07T08:26:24.569Z,13.12
2018-11-07T08:27:28.605Z,13.13
2018-11-07T08:28:32.874Z,13.15
2018-11-07T08:29:37.104Z,13.16
2018-11-07T08:30:41.366Z,13.17
2018-11-07T08:31:45.469Z,13.18
2018-11-07T08:32:49.604Z,13.19
2018-11-07T08:33:53.740Z,13.22
2018-11-07T08:34:57.823Z,13.22
2018-11-07T08:36:02.107Z,13.23
2018-11-07T08:37:06.182Z,13.24
2018-11-07T08:38:10.290Z,13.26
2018-11-07T08:39:14.466Z,13.27
2018-11-07T08:40:20.138Z,13.28
2018-11-07T08:41:25.057Z,13.30
2018-11-07T08:42:29.317Z,13.32
2018-11-07T08:43:33.418Z,13.33
2018-11-07T08:44:37.537Z,13.34
2018-11-07T08:45:41.626Z,13.36
2018-11-07T08:46:45.693Z,13.37
2018-11-07T08:47:50.220Z,13.39
2018-11-07T08:48:54.323Z,13.40
2018-11-07T08:49:58.604Z,13.41
2018-11-07T08:51:02.720Z,13.42
2018-11-07T08:52:06.912Z,13.46
2018-11-07T08:53:11.054Z,13.47
2018-11-07T08:54:15.213Z,13.47
2018-11-07T08:55:21.418Z,13.49
2018-11-07T08:56:25.555Z,13.49
2018-11-07T08:57:29.817Z,13.51
2018-11-07T08:58:34.057Z,13.53
2018-11-07T08:59:38.177Z,13.54
2018-11-07T09:00:42.440Z,13.55
2018-11-07T09:01:46.660Z,13.56
2018-11-07T09:02:50.777Z,13.57
2018-11-07T09:03:54.988Z,13.59
2018-11-07T09:04:59.169Z,13.60
2018-11-07T09:06:03.350Z,13.61
2018-11-07T09:07:07.663Z,13.62
2018-11-07T09:08:11.743Z,13.63
2018-11-07T09:09:15.951Z,13.64
2018-11-07T09:10:21.588Z,13.65
2018-11-07T09:11:25.707Z,13.67
2018-11-07T09:12:29.969Z,13.69
2018-11-07T09:13:34.283Z,13.70
2018-11-07T09:14:38.408Z,13.70
2018-11-07T09:15:42.454Z,13.72
2018-11-07T09:16:46.505Z,13.73
2018-11-07T09:17:50.571Z,13.75
2018-11-07T09:18:54.672Z,13.77
2018-11-07T09:19:58.869Z,13.79
2018-11-07T09:21:02.893Z,13.80
2018-11-07T09:22:06.978Z,13.82
2018-11-07T09:23:11.237Z,13.83
2018-11-07T09:24:15.428Z,13.86
2018-11-07T09:25:19.616Z,13.87
2018-11-07T09:26:23.665Z,13.89
2018-11-07T09:27:27.845Z,13.90
2018-11-07T09:28:32.052Z,13.93
2018-11-07T09:29:36.133Z,13.93
2018-11-07T09:30:40.213Z,13.95
2018-11-07T09:31:44.368Z,13.96
2018-11-07T09:32:48.573Z,13.98
2018-11-07T09:33:52.824Z,13.99
2018-11-07T09:34:57.007Z,14.00
2018-11-07T09:36:01.115Z,14.00
2018-11-07T09:37:05.164Z,14.02
2018-11-07T09:38:09.269Z,14.03
2018-11-07T09:39:13.444Z,14.05
2018-11-07T09:40:18.879Z,14.06
2018-11-07T09:41:23.050Z,14.10
2018-11-07T09:42:27.128Z,14.13
2018-11-07T09:43:31.244Z,14.15
2018-11-07T09:44:35.415Z,14.18
2018-11-07T09:45:39.794Z,14.21
2018-11-07T09:46:43.990Z,14.25
2018-11-07T09:47:48.405Z,14.27
2018-11-07T09:48:52.996Z,14.31
2018-11-07T09:49:57.831Z,14.35
2018-11-07T09:51:01.927Z,14.39
2018-11-07T09:52:06.205Z,14.42
2018-11-07T09:53:10.713Z,14.45
2018-11-07T09:54:15.095Z,14.48
2018-11-07T09:55:20.471Z,14.51
2018-11-07T09:56:24.828Z,14.54
2018-11-07T09:57:28.925Z,14.57
2018-11-07T09:58:33.130Z,14.57
2018-11-07T09:59:37.388Z,14.59
2018-11-07T10:00:41.418Z,14.61
2018-11-07T10:01:45.497Z,14.62
2018-11-07T10:02:49.626Z,14.65
2018-11-07T10:03:53.739Z,14.65
2018-11-07T10:04:57.861Z,14.68
2018-11-07T10:06:01.989Z,14.68
2018-11-07T10:07:06.197Z,14.70
2018-11-07T10:08:10.326Z,14.72
2018-11-07T10:09:14.470Z,14.75
2018-11-07T10:10:20.049Z,14.76
2018-11-07T10:11:24.049Z,14.78
2018-11-07T10:12:28.268Z,14.82
2018-11-07T10:13:32.444Z,14.85
2018-11-07T10:14:36.698Z,14.88
2018-11-07T10:15:40.873Z,14.91
2018-11-07T10:16:45.017Z,14.94
2018-11-07T10:17:49.626Z,14.96
2018-11-07T10:18:53.762Z,14.99
2018-11-07T10:19:57.901Z,15.00
2018-11-07T10:21:02.039Z,15.03
2018-11-07T10:22:06.220Z,15.04
2018-11-07T10:23:10.417Z,15.05
2018-11-07T10:24:14.579Z,15.06
2018-11-07T10:25:18.974Z,15.07
2018-11-07T10:26:23.073Z,15.09
2018-11-07T10:27:27.366Z,15.09
2018-11-07T10:28:31.579Z,15.10
2018-11-07T10:29:35.869Z,15.10
2018-11-07T10:30:39.766Z,15.12
2018-11-07T10:31:43.869Z,15.14
2018-11-07T10:32:48.951Z,15.16
2018-11-07T10:33:53.102Z,15.17
2018-11-07T10:34:57.140Z,15.17
2018-11-07T10:36:01.254Z,15.18
2018-11-07T10:37:05.544Z,15.19
2018-11-07T10:38:09.732Z,15.21
2018-11-07T10:39:13.662Z,15.21
2018-11-07T10:40:20.257Z,15.22
2018-11-07T10:41:24.325Z,15.22
2018-11-07T10:42:28.481Z,15.23
2018-11-07T10:43:32.604Z,15.25
2018-11-07T10:44:36.756Z,15.26
2018-11-07T10:45:40.832Z,15.28
2018-11-07T10:46:44.957Z,15.28
2018-11-07T10:47:49.645Z,15.31
2018-11-07T10:48:54.878Z,15.34
2018-11-07T10:49:58.931Z,15.36
2018-11-07T10:51:03.210Z,15.38
2018-11-07T10:52:07.526Z,15.41
2018-11-07T10:53:11.593Z,15.44
2018-11-07T10:54:15.681Z,15.46
2018-11-07T10:55:19.968Z,15.50
2018-11-07T10:56:24.104Z,15.51
2018-11-07T10:57:28.246Z,15.53
2018-11-07T10:58:32.272Z,15.55
2018-11-07T10:59:36.396Z,15.56
2018-11-07T11:00:45.972Z,15.57
2018-11-07T11:01:55.342Z,15.59
2018-11-07T11:03:13.750Z,15.61
2018-11-07T11:04:17.901Z,15.59
2018-11-07T11:05:22.237Z,15.61
2018-11-07T11:06:26.425Z,15.61
2018-11-07T11:07:30.553Z,15.61
2018-11-07T11:08:34.739Z,15.62
2018-11-07T11:09:38.894Z,15.63
2018-11-07T11:10:43.066Z,15.64
2018-11-07T11:11:47.148Z,15.64
2018-11-07T11:12:51.390Z,15.66
2018-11-07T11:13:55.518Z,15.67
2018-11-07T11:14:59.656Z,15.66
2018-11-07T11:16:03.762Z,15.69
2018-11-07T11:17:07.888Z,15.69
2018-11-07T11:18:12.161Z,15.70
2018-11-07T11:19:16.314Z,15.71
2018-11-07T11:20:20.438Z,15.71
2018-11-07T11:21:24.602Z,15.72
2018-11-07T11:22:28.740Z,15.72
2018-11-07T11:23:32.886Z,15.73
2018-11-07T11:24:38.060Z,15.75
2018-11-07T11:25:42.297Z,15.77
2018-11-07T11:26:46.475Z,15.78
2018-11-07T11:27:50.615Z,15.78
2018-11-07T11:28:54.775Z,15.79
2018-11-07T11:29:58.893Z,15.81
2018-11-07T11:31:02.907Z,15.82
2018-11-07T11:32:06.957Z,15.84
2018-11-07T11:33:11.137Z,15.85
2018-11-07T11:34:15.426Z,15.85
2018-11-07T11:35:19.432Z,15.87
2018-11-07T11:36:23.574Z,15.87
2018-11-07T11:37:27.693Z,15.88
2018-11-07T11:38:31.819Z,15.90
2018-11-07T11:39:36.012Z,15.91
2018-11-07T11:40:40.227Z,15.91
2018-11-07T11:41:44.269Z,15.94
2018-11-07T11:42:48.519Z,15.94
2018-11-07T11:43:52.647Z,15.95
2018-11-07T11:44:57.038Z,15.97
2018-11-07T11:46:01.740Z,15.97
2018-11-07T11:47:06.164Z,15.98
2018-11-07T11:48:10.267Z,15.99
2018-11-07T11:49:14.594Z,16.01
2018-11-07T11:50:19.801Z,16.01
2018-11-07T11:51:23.927Z,16.03
2018-11-07T11:52:28.056Z,16.04
2018-11-07T11:53:32.077Z,16.06
2018-11-07T11:54:36.193Z,16.08
2018-11-07T11:55:40.291Z,16.11
2018-11-07T11:56:44.389Z,16.12
2018-11-07T11:57:48.826Z,16.13
2018-11-07T11:58:53.279Z,16.15
2018-11-07T11:59:57.703Z,16.17
2018-11-07T12:01:01.566Z,16.18
2018-11-07T12:02:05.733Z,16.21
2018-11-07T12:03:09.865Z,16.23
2018-11-07T12:04:14.112Z,16.24
2018-11-07T12:05:19.019Z,16.27
2018-11-07T12:06:23.199Z,16.28
2018-11-07T12:07:27.425Z,16.31
2018-11-07T12:08:31.632Z,16.31
2018-11-07T12:09:35.786Z,16.34
2018-11-07T12:10:41.022Z,16.33
2018-11-07T12:11:45.285Z,16.34
2018-11-07T12:12:50.613Z,16.35
2018-11-07T12:13:54.726Z,16.36
2018-11-07T12:14:58.930Z,16.34
2018-11-07T12:16:03.068Z,16.35
2018-11-07T12:17:07.066Z,16.36
2018-11-07T12:18:11.210Z,16.35
2018-11-07T12:19:15.366Z,16.35
2018-11-07T12:20:19.444Z,16.35
2018-11-07T12:21:23.902Z,16.34
2018-11-07T12:22:27.927Z,16.35
2018-11-07T12:23:32.043Z,16.35
2018-11-07T12:24:36.282Z,16.34
2018-11-07T12:25:40.747Z,16.34
2018-11-07T12:26:45.635Z,16.34
2018-11-07T12:27:49.827Z,16.34
2018-11-07T12:28:53.995Z,16.36
2018-11-07T12:29:58.703Z,16.37
2018-11-07T12:31:02.931Z,16.38
2018-11-07T12:32:06.970Z,16.40
2018-11-07T12:33:11.074Z,16.43
2018-11-07T12:34:15.205Z,16.47
2018-11-07T12:35:20.007Z,16.48
2018-11-07T12:36:24.255Z,16.52
2018-11-07T12:37:28.415Z,16.54
2018-11-07T12:38:33.364Z,16.56
2018-11-07T12:39:37.413Z,16.59
2018-11-07T12:40:41.529Z,16.61
2018-11-07T12:41:45.706Z,16.65
2018-11-07T12:42:50.301Z,16.67
2018-11-07T12:43:54.448Z,16.71
2018-11-07T12:44:58.729Z,16.73
2018-11-07T12:46:02.904Z,16.75
2018-11-07T12:47:07.353Z,16.79
2018-11-07T12:48:11.552Z,16.81
2018-11-07T12:49:15.731Z,16.83
2018-11-07T12:50:26.383Z,16.85
2018-11-07T12:51:30.403Z,16.86
2018-11-07T12:52:34.544Z,16.87
2018-11-07T12:53:38.880Z,16.89
2018-11-07T12:54:43.036Z,16.91
2018-11-07T12:55:47.965Z,16.93
2018-11-07T12:56:52.060Z,16.96
2018-11-07T12:57:56.352Z,16.99
2018-11-07T12:59:00.444Z,17.01
2018-11-07T13:00:06.183Z,17.03
2018-11-07T13:01:10.154Z,17.05
2018-11-07T13:02:14.286Z,17.05
2018-11-07T13:03:18.467Z,17.07
2018-11-07T13:04:22.730Z,17.07
2018-11-07T13:05:27.382Z,17.07
2018-11-07T13:06:31.558Z,17.08
2018-11-07T13:07:35.937Z,17.08
2018-11-07T13:08:39.976Z,17.06
2018-11-07T13:09:44.110Z,17.07
2018-11-07T13:10:48.265Z,17.07
2018-11-07T13:11:52.569Z,17.08
2018-11-07T13:12:56.655Z,17.08
2018-11-07T13:14:00.732Z,17.07
2018-11-07T13:15:05.843Z,17.06
2018-11-07T13:16:09.921Z,17.06
2018-11-07T13:17:14.085Z,17.05
2018-11-07T13:18:18.141Z,17.05
2018-11-07T13:19:22.216Z,17.04
2018-11-07T13:20:26.750Z,17.04
2018-11-07T13:21:30.793Z,17.02
2018-11-07T13:22:34.838Z,17.03
2018-11-07T13:23:38.935Z,17.01
2018-11-07T13:24:43.133Z,17.01
2018-11-07T13:25:47.350Z,17.01
2018-11-07T13:26:51.346Z,17.02
2018-11-07T13:27:55.489Z,17.02
2018-11-07T13:29:00.081Z,17.04
2018-11-07T13:30:04.609Z,17.05
2018-11-07T13:31:08.853Z,17.06
2018-11-07T13:32:12.909Z,17.07
2018-11-07T13:33:17.100Z,17.08
2018-11-07T13:34:21.237Z,17.10
2018-11-07T13:35:25.399Z,17.08
2018-11-07T13:36:29.804Z,17.08
2018-11-07T13:37:34.243Z,17.09
2018-11-07T13:38:38.565Z,17.09
2018-11-07T13:39:42.316Z,17.08
2018-11-07T13:40:46.357Z,17.07
2018-11-07T13:41:50.298Z,17.07
2018-11-07T13:42:54.344Z,17.07
2018-11-07T13:43:58.457Z,17.06
2018-11-07T13:45:02.613Z,17.06
2018-11-07T13:46:06.837Z,17.06
2018-11-07T13:47:10.919Z,17.05
2018-11-07T13:48:15.056Z,17.05
2018-11-07T13:49:19.344Z,17.06
2018-11-07T13:50:23.541Z,17.06
2018-11-07T13:51:27.719Z,17.07
2018-11-07T13:52:31.894Z,17.06
2018-11-07T13:53:36.044Z,17.07
2018-11-07T13:54:40.169Z,17.07
2018-11-07T13:55:44.226Z,17.06
2018-11-07T13:56:48.338Z,17.07
2018-11-07T13:57:52.569Z,17.07
2018-11-07T13:58:56.742Z,17.05
2018-11-07T14:00:01.470Z,17.05
2018-11-07T14:01:05.519Z,17.06